createdAt,value
2018-12-18T00:00:04.195Z,4.30
2018-12-18T00:02:31.146Z,4.29
2018-12-18T00:04:58.100Z,4.27
2018-12-18T00:07:25.054Z,4.24
2018-12-18T00:09:52.068Z,4.21
2018-12-18T00:12:18.993Z,4.16
2018-12-18T00:14:46.536Z,4.12
2018-12-18T00:17:13.502Z,4.12
2018-12-18T00:19:40.480Z,4.14
2018-12-18T00:22:07.439Z,4.12
2018-12-18T00:24:34.385Z,4.09
2018-12-18T00:27:01.354Z,4.07
2018-12-18T00:29:28.328Z,4.05
2018-12-18T00:31:55.326Z,3.96
2018-12-18T00:34:22.293Z,3.86
2018-12-18T00:36:49.745Z,3.69
2018-12-18T00:39:16.717Z,3.63
2018-12-18T00:41:43.868Z,3.62
2018-12-18T00:44:10.831Z,3.65
2018-12-18T00:46:37.857Z,3.68
2018-12-18T00:49:04.823Z,3.75
2018-12-18T00:51:31.782Z,3.74
2018-12-18T00:53:58.818Z,3.70
2018-12-18T00:56:25.798Z,3.69
2018-12-18T00:58:52.786Z,3.69
2018-12-18T01:01:19.801Z,3.69
2018-12-18T01:03:52.570Z,3.66
2018-12-18T01:06:13.775Z,3.58
2018-12-18T01:08:40.844Z,3.53
2018-12-18T01:11:07.843Z,3.56
2018-12-18T01:13:34.848Z,3.62
2018-12-18T01:16:03.738Z,3.64
2018-12-18T01:18:31.171Z,3.64
2018-12-18T01:20:58.563Z,3.65
2018-12-18T01:23:26.057Z,3.55
2018-12-18T01:25:53.449Z,3.36
2018-12-18T01:28:20.874Z,3.22
2018-12-18T01:30:48.300Z,3.27
2018-12-18T01:33:15.892Z,3.35
2018-12-18T01:35:43.289Z,3.42
2018-12-18T01:38:10.714Z,3.41
2018-12-18T01:40:38.176Z,3.41
2018-12-18T01:43:05.160Z,3.35
2018-12-18T01:45:32.602Z,3.43
2018-12-18T01:48:00.016Z,3.45
2018-12-18T01:50:27.420Z,3.47
2018-12-18T01:52:55.154Z,3.49
2018-12-18T01:55:22.543Z,3.52
2018-12-18T01:57:49.971Z,3.54
2018-12-18T02:00:17.366Z,3.54
2018-12-18T02:02:45.000Z,3.54
2018-12-18T02:05:12.932Z,3.53
2018-12-18T02:07:40.335Z,3.53
2018-12-18T02:10:07.759Z,3.42
2018-12-18T02:12:35.167Z,3.36
2018-12-18T02:15:03.423Z,3.30
2018-12-18T02:17:30.878Z,3.27
2018-12-18T02:19:58.301Z,3.25
2018-12-18T02:22:25.683Z,3.27
2018-12-18T02:24:53.071Z,3.26
2018-12-18T02:27:20.476Z,3.22
2018-12-18T02:29:47.876Z,3.20
2018-12-18T02:32:15.278Z,3.21
2018-12-18T02:34:42.682Z,3.24
2018-12-18T02:37:10.116Z,3.22
2018-12-18T02:39:37.524Z,3.18
2018-12-18T02:42:04.928Z,3.18
2018-12-18T02:44:32.326Z,3.18
2018-12-18T02:46:59.741Z,3.17
2018-12-18T02:49:27.165Z,3.16
2018-12-18T02:51:54.569Z,3.09
2018-12-18T02:54:21.991Z,3.12
2018-12-18T02:56:49.387Z,3.08
2018-12-18T02:59:16.817Z,3.03
2018-12-18T03:01:44.263Z,2.98
2018-12-18T03:04:12.018Z,2.74
2018-12-18T03:06:39.491Z,2.62
2018-12-18T03:09:06.911Z,2.64
2018-12-18T03:11:34.311Z,2.60
2018-12-18T03:14:01.737Z,2.63
2018-12-18T03:16:29.128Z,2.70
2018-12-18T03:18:56.545Z,2.79
2018-12-18T03:21:24.327Z,2.79
2018-12-18T03:23:51.725Z,2.85
2018-12-18T03:26:19.508Z,2.89
2018-12-18T03:28:47.116Z,2.90
2018-12-18T03:31:14.531Z,2.75
2018-12-18T03:33:42.614Z,2.67
2018-12-18T03:36:10.022Z,2.79
2018-12-18T03:38:37.661Z,2.90
2018-12-18T03:41:05.525Z,2.83
2018-12-18T03:43:32.954Z,2.85
2018-12-18T03:46:00.355Z,2.85
2018-12-18T03:48:27.809Z,2.96
2018-12-18T03:50:56.575Z,2.97
2018-12-18T03:53:24.002Z,2.99
2018-12-18T03:55:51.635Z,3.07
2018-12-18T03:58:19.097Z,3.13
2018-12-18T04:00:46.529Z,3.26
2018-12-18T04:03:14.792Z,3.32
2018-12-18T04:05:42.212Z,3.39
2018-12-18T04:08:09.881Z,3.48
2018-12-18T04:10:37.341Z,3.60
2018-12-18T04:13:04.751Z,3.68
2018-12-18T04:15:32.355Z,3.64
2018-12-18T04:17:59.771Z,3.61
2018-12-18T04:20:27.317Z,3.69
2018-12-18T04:22:54.718Z,3.71
2018-12-18T04:25:22.164Z,3.67
2018-12-18T04:27:49.641Z,3.67
2018-12-18T04:30:17.061Z,3.71
2018-12-18T04:32:44.556Z,3.64
2018-12-18T04:35:12.067Z,3.63
2018-12-18T04:37:39.546Z,3.67
2018-12-18T04:40:07.100Z,3.63
2018-12-18T04:42:34.561Z,3.59
2018-12-18T04:45:03.061Z,3.63
2018-12-18T04:47:30.459Z,3.64
2018-12-18T04:49:57.877Z,3.66
2018-12-18T04:52:25.281Z,3.74
2018-12-18T04:54:52.753Z,3.86
2018-12-18T04:57:20.165Z,3.91
2018-12-18T04:59:47.602Z,3.98
2018-12-18T05:02:15.092Z,4.13
2018-12-18T05:04:50.007Z,4.18
2018-12-18T05:07:10.245Z,4.18
2018-12-18T05:09:38.256Z,4.26
2018-12-18T05:12:06.571Z,4.24
2018-12-18T05:14:35.072Z,4.32
2018-12-18T05:17:02.518Z,4.27
2018-12-18T05:19:29.985Z,4.16
2018-12-18T05:21:58.093Z,4.12
2018-12-18T05:24:25.518Z,4.26
2018-12-18T05:26:52.969Z,4.31
2018-12-18T05:29:20.409Z,4.35
2018-12-18T05:31:47.847Z,4.48
2018-12-18T05:34:15.339Z,4.59
2018-12-18T05:36:42.819Z,4.56
2018-12-18T05:39:10.670Z,4.57
2018-12-18T05:41:38.120Z,4.59
2018-12-18T05:44:05.527Z,4.61
2018-12-18T05:46:32.937Z,4.66
2018-12-18T05:49:00.991Z,4.63
2018-12-18T05:51:28.397Z,4.70
2018-12-18T05:53:55.808Z,4.74
2018-12-18T05:56:23.282Z,4.80
2018-12-18T05:58:50.721Z,4.72
2018-12-18T06:01:18.183Z,4.62
2018-12-18T06:03:45.586Z,4.60
2018-12-18T06:06:13.585Z,4.62
2018-12-18T06:08:40.978Z,4.57
2018-12-18T06:11:08.449Z,4.56
2018-12-18T06:13:35.871Z,4.53
2018-12-18T06:16:04.460Z,4.58
2018-12-18T06:18:31.895Z,4.64
2018-12-18T06:20:59.297Z,4.61
2018-12-18T06:23:26.741Z,4.57
2018-12-18T06:25:54.129Z,4.51
2018-12-18T06:28:22.051Z,4.51
2018-12-18T06:30:49.453Z,4.49
2018-12-18T06:33:16.892Z,4.35
2018-12-18T06:35:44.407Z,4.41
2018-12-18T06:38:11.828Z,4.47
2018-12-18T06:40:39.230Z,4.50
2018-12-18T06:43:06.699Z,4.55
2018-12-18T06:45:34.140Z,4.51
2018-12-18T06:48:01.583Z,4.45
2018-12-18T06:50:28.998Z,4.41
2018-12-18T06:52:56.426Z,4.53
2018-12-18T06:55:23.853Z,4.52
2018-12-18T06:57:51.333Z,4.55
2018-12-18T07:00:18.767Z,4.52
2018-12-18T07:02:46.343Z,4.48
2018-12-18T07:05:16.822Z,4.48
2018-12-18T07:07:41.396Z,4.35
2018-12-18T07:10:08.797Z,4.34
2018-12-18T07:12:36.974Z,4.38
2018-12-18T07:15:04.383Z,4.49
2018-12-18T07:17:32.631Z,4.42
2018-12-18T07:20:00.058Z,4.57
2018-12-18T07:22:27.454Z,4.70
2018-12-18T07:24:54.897Z,4.74
2018-12-18T07:27:22.307Z,4.73
2018-12-18T07:29:49.712Z,4.61
2018-12-18T07:32:17.135Z,4.57
2018-12-18T07:34:44.529Z,4.64
2018-12-18T07:37:11.957Z,4.77
2018-12-18T07:39:39.450Z,4.94
2018-12-18T07:42:07.085Z,5.02
2018-12-18T07:44:35.641Z,5.10
2018-12-18T07:47:03.191Z,5.05
2018-12-18T07:49:30.607Z,5.04
2018-12-18T07:51:58.487Z,4.86
2018-12-18T07:54:26.072Z,4.79
2018-12-18T07:56:53.478Z,4.80
2018-12-18T07:59:20.893Z,4.76
2018-12-18T08:01:48.359Z,4.71
2018-12-18T08:04:15.761Z,4.66
2018-12-18T08:06:44.422Z,4.68
2018-12-18T08:09:11.899Z,4.85
2018-12-18T08:11:39.326Z,4.90
2018-12-18T08:14:06.742Z,4.95
2018-12-18T08:16:34.817Z,4.93
2018-12-18T08:19:02.260Z,5.01
2018-12-18T08:21:30.291Z,4.98
2018-12-18T08:23:57.972Z,4.97
2018-12-18T08:26:25.518Z,5.03
2018-12-18T08:28:52.925Z,5.10
2018-12-18T08:31:20.384Z,5.28
2018-12-18T08:33:48.607Z,5.46
2018-12-18T08:36:16.059Z,5.42
2018-12-18T08:38:43.461Z,5.41
2018-12-18T08:41:10.969Z,5.59
2018-12-18T08:43:38.380Z,5.74
2018-12-18T08:46:10.140Z,5.93
2018-12-18T08:48:33.207Z,5.98
2018-12-18T08:51:00.736Z,6.26
2018-12-18T08:53:28.152Z,6.49
2018-12-18T08:55:55.552Z,6.73
2018-12-18T08:58:22.954Z,6.83
2018-12-18T09:00:50.458Z,7.06
2018-12-18T09:03:17.913Z,7.05
2018-12-18T09:05:45.419Z,7.06
2018-12-18T09:08:12.870Z,7.24
2018-12-18T09:10:40.345Z,7.79
2018-12-18T09:13:07.876Z,8.37
2018-12-18T09:15:40.549Z,9.21
2018-12-18T09:18:07.566Z,9.34
2018-12-18T09:20:34.534Z,8.53
2018-12-18T09:23:01.493Z,7.79
2018-12-18T09:25:28.441Z,7.51
2018-12-18T09:27:55.400Z,7.24
2018-12-18T09:30:22.849Z,7.02
2018-12-18T09:32:50.280Z,6.85
2018-12-18T09:35:17.702Z,6.89
2018-12-18T09:37:45.097Z,6.86
2018-12-18T09:40:12.549Z,6.95
2018-12-18T09:42:45.519Z,7.09
2018-12-18T09:45:12.936Z,7.09
2018-12-18T09:47:39.892Z,7.21
2018-12-18T09:50:06.846Z,7.42
2018-12-18T09:52:33.819Z,7.69
2018-12-18T09:55:00.788Z,7.59
2018-12-18T09:57:33.430Z,7.53
2018-12-18T10:00:00.381Z,7.65
2018-12-18T10:02:27.338Z,7.94
2018-12-18T10:04:54.403Z,8.49
2018-12-18T10:07:21.377Z,8.81
2018-12-18T10:09:48.410Z,10.15
2018-12-18T10:12:15.477Z,11.67
2018-12-18T10:14:42.463Z,12.25
2018-12-18T10:17:09.423Z,12.90
2018-12-18T10:19:36.375Z,12.98
2018-12-18T10:22:03.331Z,12.48
2018-12-18T10:24:30.286Z,12.96
2018-12-18T10:26:57.227Z,13.30
2018-12-18T10:29:24.186Z,13.58
2018-12-18T10:31:51.182Z,13.78
2018-12-18T10:34:18.670Z,13.16
2018-12-18T10:36:45.607Z,13.45
2018-12-18T10:39:12.764Z,14.06
2018-12-18T10:41:39.792Z,14.57
2018-12-18T10:44:07.198Z,14.95
2018-12-18T10:46:34.680Z,14.32
2018-12-18T10:49:02.104Z,14.45
2018-12-18T10:51:29.530Z,14.76
2018-12-18T10:53:57.033Z,15.08
2018-12-18T10:56:24.472Z,15.57
2018-12-18T10:58:51.919Z,16.00
2018-12-18T11:01:25.283Z,15.58
2018-12-18T11:03:52.703Z,15.62
2018-12-18T11:06:20.144Z,16.10
2018-12-18T11:08:47.631Z,15.74
2018-12-18T11:11:15.022Z,14.77
2018-12-18T11:13:42.543Z,14.50
2018-12-18T11:16:09.936Z,13.29
2018-12-18T11:18:37.381Z,12.17
2018-12-18T11:21:04.777Z,11.67
2018-12-18T11:23:33.396Z,11.06
2018-12-18T11:26:00.795Z,11.07
2018-12-18T11:28:28.375Z,10.92
2018-12-18T11:30:56.153Z,10.95
2018-12-18T11:33:23.558Z,10.44
2018-12-18T11:35:51.311Z,10.01
2018-12-18T11:38:18.784Z,9.85
2018-12-18T11:40:46.184Z,9.62
2018-12-18T11:43:13.591Z,9.61
2018-12-18T11:45:41.005Z,10.03
2018-12-18T11:48:08.565Z,10.13
2018-12-18T11:50:35.959Z,10.16
2018-12-18T11:53:03.397Z,9.76
2018-12-18T11:55:30.894Z,10.62
2018-12-18T11:57:58.882Z,12.98
2018-12-18T12:00:26.369Z,14.37
2018-12-18T12:02:53.866Z,14.98
2018-12-18T12:05:21.314Z,15.64
2018-12-18T12:07:48.747Z,16.31
2018-12-18T12:10:16.661Z,16.79
2018-12-18T12:12:44.073Z,17.31
2018-12-18T12:15:11.508Z,16.16
2018-12-18T12:17:38.915Z,16.39
2018-12-18T12:20:06.355Z,16.65
2018-12-18T12:22:33.765Z,17.42
2018-12-18T12:25:01.223Z,18.00
2018-12-18T12:27:33.478Z,18.21
2018-12-18T12:30:01.247Z,19.04
2018-12-18T12:32:28.674Z,19.50
2018-12-18T12:34:56.607Z,19.50
2018-12-18T12:37:24.069Z,19.26
2018-12-18T12:39:54.357Z,19.20
2018-12-18T12:42:21.765Z,19.51
2018-12-18T12:44:49.194Z,19.99
2018-12-18T12:47:16.723Z,19.99
2018-12-18T12:49:44.193Z,19.21
2018-12-18T12:52:11.592Z,19.26
2018-12-18T12:54:39.826Z,18.74
2018-12-18T12:57:08.847Z,17.64
2018-12-18T12:59:36.423Z,16.99
2018-12-18T13:02:03.826Z,16.46
2018-12-18T13:04:31.316Z,16.12
2018-12-18T13:06:58.825Z,15.36
2018-12-18T13:09:26.853Z,15.23
2018-12-18T13:11:54.255Z,16.42
2018-12-18T13:14:21.770Z,16.44
2018-12-18T13:16:49.166Z,16.43
2018-12-18T13:19:16.566Z,16.05
2018-12-18T13:21:43.987Z,15.84
2018-12-18T13:24:11.560Z,16.12
2018-12-18T13:26:38.995Z,15.90
2018-12-18T13:29:06.493Z,13.77
2018-12-18T13:31:34.054Z,12.19
2018-12-18T13:34:02.073Z,11.18
2018-12-18T13:36:29.039Z,10.94
2018-12-18T13:38:56.496Z,10.50
2018-12-18T13:41:23.926Z,10.27
2018-12-18T13:43:51.350Z,9.97
2018-12-18T13:46:18.806Z,9.90
2018-12-18T13:48:46.585Z,9.70
2018-12-18T13:51:14.010Z,9.55
2018-12-18T13:53:41.457Z,9.41
2018-12-18T13:56:08.897Z,9.42
2018-12-18T13:58:36.376Z,9.38
2018-12-18T14:01:03.828Z,9.34
2018-12-18T14:03:31.282Z,9.39
2018-12-18T14:05:58.676Z,9.48
2018-12-18T14:08:26.130Z,9.47
2018-12-18T14:10:53.736Z,9.44
2018-12-18T14:13:21.120Z,9.45
2018-12-18T14:15:48.543Z,9.51
2018-12-18T14:18:15.955Z,9.62
2018-12-18T14:20:43.367Z,9.65
2018-12-18T14:23:10.786Z,9.58
2018-12-18T14:25:38.176Z,9.52
2018-12-18T14:28:05.674Z,9.49
2018-12-18T14:30:33.219Z,9.41
2018-12-18T14:33:00.626Z,9.40
2018-12-18T14:35:28.042Z,9.27
2018-12-18T14:37:55.468Z,9.15
2018-12-18T14:40:22.856Z,9.09
2018-12-18T14:42:50.269Z,9.19
2018-12-18T14:45:17.667Z,9.13
2018-12-18T14:47:45.090Z,8.99
2018-12-18T14:50:12.490Z,8.86
2018-12-18T14:52:39.922Z,8.76
2018-12-18T14:55:07.459Z,8.67
2018-12-18T14:57:34.890Z,8.70
2018-12-18T15:00:02.300Z,8.52
2018-12-18T15:02:30.128Z,8.47
2018-12-18T15:04:57.535Z,8.39
2018-12-18T15:07:25.249Z,8.29
2018-12-18T15:09:53.000Z,8.26
2018-12-18T15:12:21.129Z,8.15
2018-12-18T15:14:48.546Z,8.18
2018-12-18T15:17:15.955Z,8.18
2018-12-18T15:19:43.380Z,8.11
2018-12-18T15:22:10.812Z,8.05
2018-12-18T15:24:38.241Z,8.01
2018-12-18T15:27:05.681Z,7.91
2018-12-18T15:29:33.768Z,7.79
2018-12-18T15:32:01.181Z,7.76
2018-12-18T15:34:28.654Z,7.74
2018-12-18T15:36:56.047Z,7.67
2018-12-18T15:39:23.483Z,7.65
2018-12-18T15:41:50.871Z,7.59
2018-12-18T15:44:18.316Z,7.43
2018-12-18T15:46:45.721Z,7.34
2018-12-18T15:49:13.294Z,7.32
2018-12-18T15:51:40.707Z,7.31
2018-12-18T15:54:08.109Z,7.25
2018-12-18T15:56:35.500Z,7.31
2018-12-18T15:59:02.971Z,7.33
2018-12-18T16:01:30.387Z,7.30
2018-12-18T16:03:58.680Z,7.27
2018-12-18T16:06:26.161Z,7.15
2018-12-18T16:08:53.556Z,7.08
2018-12-18T16:11:20.945Z,7.07
2018-12-18T16:13:48.361Z,7.06
2018-12-18T16:16:15.758Z,7.05
2018-12-18T16:18:43.241Z,7.06
2018-12-18T16:21:10.698Z,7.06
2018-12-18T16:23:38.128Z,7.11
2018-12-18T16:26:05.572Z,7.08
2018-12-18T16:28:33.009Z,6.99
2018-12-18T16:31:00.402Z,7.05
2018-12-18T16:33:27.872Z,7.05
2018-12-18T16:35:55.334Z,7.07
2018-12-18T16:38:22.871Z,7.08
2018-12-18T16:40:50.307Z,7.04
2018-12-18T16:43:17.730Z,7.02
2018-12-18T16:45:45.128Z,7.04
2018-12-18T16:48:12.559Z,7.08
2018-12-18T16:50:39.961Z,6.97
2018-12-18T16:53:07.520Z,6.90
2018-12-18T16:55:34.934Z,6.91
2018-12-18T16:58:02.327Z,6.94
2018-12-18T17:00:29.901Z,6.94
2018-12-18T17:02:57.321Z,6.91
2018-12-18T17:05:24.298Z,6.90
2018-12-18T17:07:51.247Z,6.91
2018-12-18T17:10:18.197Z,6.89
2018-12-18T17:12:50.809Z,6.81
2018-12-18T17:15:17.909Z,6.76
2018-12-18T17:17:45.321Z,6.73
2018-12-18T17:20:12.754Z,6.69
2018-12-18T17:22:40.799Z,6.61
2018-12-18T17:25:08.201Z,6.60
2018-12-18T17:27:35.642Z,6.62
2018-12-18T17:30:03.412Z,6.67
2018-12-18T17:32:30.427Z,6.74
2018-12-18T17:34:57.382Z,6.69
2018-12-18T17:37:24.336Z,6.63
2018-12-18T17:39:51.807Z,6.62
2018-12-18T17:42:19.411Z,6.62
2018-12-18T17:44:46.399Z,6.58
2018-12-18T17:47:13.350Z,6.54
2018-12-18T17:49:40.308Z,6.47
2018-12-18T17:52:07.332Z,6.40
2018-12-18T17:54:34.352Z,6.23
2018-12-18T17:57:01.439Z,6.18
2018-12-18T17:59:28.843Z,6.08
2018-12-18T18:01:56.339Z,5.99
2018-12-18T18:04:23.819Z,5.95
2018-12-18T18:06:51.264Z,5.85
2018-12-18T18:09:18.719Z,5.79
2018-12-18T18:11:46.143Z,5.88
2018-12-18T18:14:13.783Z,5.93
2018-12-18T18:16:41.217Z,5.89
2018-12-18T18:19:08.607Z,5.85
2018-12-18T18:21:36.041Z,5.79
2018-12-18T18:24:03.707Z,5.79
2018-12-18T18:26:32.239Z,5.79
2018-12-18T18:28:59.331Z,5.78
2018-12-18T18:31:26.719Z,5.76
2018-12-18T18:33:54.147Z,5.75
2018-12-18T18:36:21.598Z,5.77
2018-12-18T18:38:49.790Z,5.66
2018-12-18T18:41:17.203Z,5.65
2018-12-18T18:43:44.641Z,5.71
2018-12-18T18:46:12.718Z,5.62
2018-12-18T18:48:40.179Z,5.69
2018-12-18T18:51:07.796Z,5.72
2018-12-18T18:53:35.746Z,5.75
2018-12-18T18:56:03.152Z,5.78
2018-12-18T18:58:30.579Z,5.79
2018-12-18T19:00:57.981Z,5.78
2018-12-18T19:03:25.402Z,5.80
2018-12-18T19:05:52.415Z,5.82
2018-12-18T19:08:19.388Z,5.86
2018-12-18T19:10:46.439Z,5.82
2018-12-18T19:13:13.859Z,5.79
2018-12-18T19:15:41.272Z,5.80
2018-12-18T19:18:08.733Z,5.57
2018-12-18T19:20:36.299Z,5.54
2018-12-18T19:23:03.720Z,5.47
2018-12-18T19:25:31.189Z,5.40
2018-12-18T19:27:58.135Z,5.31
2018-12-18T19:30:25.104Z,5.26
2018-12-18T19:32:52.111Z,5.28
2018-12-18T19:35:19.166Z,5.23
2018-12-18T19:37:46.261Z,5.15
2018-12-18T19:40:13.251Z,5.15
2018-12-18T19:42:40.184Z,5.24
2018-12-18T19:45:07.132Z,5.21
2018-12-18T19:47:34.316Z,5.22
2018-12-18T19:50:01.282Z,5.28
2018-12-18T19:52:28.720Z,5.36
2018-12-18T19:54:55.672Z,5.31
2018-12-18T19:57:22.611Z,5.24
2018-12-18T19:59:49.622Z,5.26
2018-12-18T20:02:17.048Z,5.25
2018-12-18T20:04:44.454Z,5.24
2018-12-18T20:07:12.711Z,5.29
2018-12-18T20:09:40.308Z,5.26
2018-12-18T20:12:08.990Z,5.25
2018-12-18T20:14:35.954Z,5.37
2018-12-18T20:17:03.376Z,5.41
2018-12-18T20:19:30.871Z,5.35
2018-12-18T20:21:59.076Z,5.39
2018-12-18T20:24:27.759Z,5.37
2018-12-18T20:26:55.332Z,5.39
2018-12-18T20:29:22.806Z,5.37
2018-12-18T20:31:50.206Z,5.39
2018-12-18T20:36:51.458Z,5.42
2018-12-18T20:39:19.745Z,5.47
2018-12-18T20:41:46.718Z,5.52
2018-12-18T20:44:13.650Z,5.46
2018-12-18T20:46:40.602Z,5.52
2018-12-18T20:49:08.569Z,5.48
2018-12-18T20:51:35.492Z,5.29
2018-12-18T20:54:02.439Z,5.12
2018-12-18T20:56:29.487Z,4.92
2018-12-18T20:58:56.947Z,4.77
2018-12-18T21:01:24.676Z,4.83
2018-12-18T21:03:52.161Z,4.83
2018-12-18T21:06:19.578Z,4.83
2018-12-18T21:08:46.983Z,4.76
2018-12-18T21:11:14.433Z,4.80
2018-12-18T21:13:41.898Z,4.65
2018-12-18T21:16:09.359Z,4.71
2018-12-18T21:18:36.785Z,4.71
2018-12-18T21:21:04.173Z,4.70
2018-12-18T21:23:31.597Z,4.81
2018-12-18T21:25:59.003Z,4.85
2018-12-18T21:28:26.419Z,4.84
2018-12-18T21:30:53.413Z,4.75
2018-12-18T21:33:20.351Z,4.76
2018-12-18T21:35:47.781Z,4.84
2018-12-18T21:38:14.768Z,4.89
2018-12-18T21:40:42.942Z,4.90
2018-12-18T21:43:10.402Z,4.88
2018-12-18T21:45:37.852Z,4.97
2018-12-18T21:48:05.291Z,5.03
2018-12-18T21:52:59.885Z,4.97
2018-12-18T21:55:27.292Z,4.97
2018-12-18T21:57:54.695Z,5.03
2018-12-18T22:00:22.106Z,4.96
2018-12-18T22:02:49.632Z,5.03
2018-12-18T22:05:17.038Z,5.03
2018-12-18T22:07:44.508Z,5.02
2018-12-18T22:10:11.469Z,4.99
2018-12-18T22:12:38.621Z,4.94
2018-12-18T22:15:06.031Z,4.87
2018-12-18T22:17:33.445Z,4.88
2018-12-18T22:20:00.872Z,5.01
2018-12-18T22:22:28.312Z,5.06
2018-12-18T22:24:55.758Z,5.07
2018-12-18T22:27:23.177Z,4.98
2018-12-18T22:29:50.730Z,4.96
2018-12-18T22:32:19.248Z,5.01
2018-12-18T22:34:46.331Z,5.09
2018-12-18T22:37:14.417Z,5.14
2018-12-18T22:39:40.267Z,5.20
2018-12-18T22:42:07.704Z,5.17
2018-12-18T22:44:34.737Z,5.09
2018-12-18T22:47:01.740Z,5.02
2018-12-18T22:49:28.689Z,5.05
2018-12-18T22:51:55.658Z,5.09
2018-12-18T22:54:23.078Z,5.07
2018-12-18T22:56:50.479Z,5.01
2018-12-18T22:59:17.897Z,4.93
2018-12-18T23:01:45.376Z,4.89
2018-12-18T23:04:12.815Z,4.83
2018-12-18T23:06:40.208Z,4.86
2018-12-18T23:09:07.606Z,4.93
2018-12-18T23:11:35.774Z,4.94
2018-12-18T23:14:03.395Z,5.01
2018-12-18T23:16:30.822Z,4.90
2018-12-18T23:18:58.285Z,4.92
2018-12-18T23:21:25.803Z,4.92
2018-12-18T23:23:53.211Z,4.92
2018-12-18T23:26:20.649Z,4.92
2018-12-18T23:28:48.076Z,4.87
2018-12-18T23:31:15.486Z,4.89
2018-12-18T23:33:42.908Z,4.85
2018-12-18T23:36:10.372Z,4.93
2018-12-18T23:38:37.746Z,4.88
2018-12-18T23:41:05.203Z,4.92
2018-12-18T23:43:32.610Z,4.88
2018-12-18T23:46:00.105Z,4.88
2018-12-18T23:48:27.543Z,4.85
2018-12-18T23:50:55.035Z,4.80
2018-12-18T23:53:22.462Z,4.85
2018-12-18T23:55:49.851Z,4.70
2018-12-18T23:58:18.110Z,4.70
